Accueil
METAR-TAF:

METAR-TAF

Aéroports :

Mont-De-Marsan, France

Base aérienne 118 Mont-de-Marsan

latitude: 43-55N, longitude: 000-30W, altitude: 62 m

Observation

Le bulletin a été fait il y a 36 minutes, à 13:00 UTC
Vent 9 kt de ouest
Température 14°C
Humidité 88%
Pression 1027 hPa
Visibilité 10 km ou plus

METAR: LFBM 221300Z AUTO 26009KT 9999 ////// 14/12 Q1027

Heure: 15:36 (13:36 UTC)

Prévision

Le bulletin a été fait il y a 5 heures et 36 minutes, à 08:00 UTC
Prévision valable du 22 à 09 UTC au 23 à 09 UTC
Vent 5 kt de sud/sud-ouest
Visibilité 10 km ou plus
pas de nuages en-dessous de 1500 mètres et pas de cumulonimbus.
Probabilité 30% :
Temporairement
du 22 à 12 UTC au 22 à 18 UTC
Visibilité: 4000 m
faibles averses de pluie

TAF: LFBM 220800Z 2209/2309 21005KT CAVOK PROB30 TEMPO 2212/2218 4000 -SHRA

Observations et prévisions météorologiques de plus de 4000 aéroports (messages METAR et TAF).

Les stations disponibles sont représentées par des disques jaunes et rouges sur la carte.

Passer la souris dessus pour voir le nom de la station.

Cliquer dessus pour voir les observations et prévisions météorologiques.

Pour changer de carte: cliquez sur les boutons verts avec une croix noire pour zoomer, sur le bouton vert avec un tiret pour effectuer un zoom arrière, ou sur les flèches vertes pour les cartes adjacentes.


METAR-TAF: